Time;durP1;ratioP1;P1;durP2;ratioP2;P2;SDS_P1;SDS_P2;PMS_P1;PMS_P2;Temp;Humidity;BMP_temperature;BMP_pressure;BME280_temperature;BME280_humidity;BME280_pressure;Samples;Min_cycle;Max_cycle;Signal;HPM_P1;HPM_P2
2023/04/22 00:00:57;;;;;;;2.40;2.17;;;;;;;9.18;100.00;97975.28;5026339;28;20224;-64
2023/04/22 00:03:26;;;;;;;2.93;2.23;;;;;;;9.18;100.00;97975.28;5026948;28;21599;-64
2023/04/22 00:05:53;;;;;;;7.47;2.27;;;;;;;9.12;100.00;97965.50;5028741;28;20223;-64
2023/04/22 00:08:19;;;;;;;3.07;2.33;;;;;;;9.09;100.00;97971.00;5023607;28;20236;-64
2023/04/22 00:10:46;;;;;;;3.03;2.40;;;;;;;9.09;100.00;97964.00;5026731;28;20639;-64
2023/04/22 00:13:13;;;;;;;5.17;2.40;;;;;;;9.14;100.00;97963.56;5021335;28;20232;-64
2023/04/22 00:15:39;;;;;;;3.57;2.30;;;;;;;9.06;100.00;97960.91;5025320;28;20233;-64
2023/04/22 00:18:12;;;;;;;2.67;2.20;;;;;;;9.01;100.00;97959.59;5018653;28;20311;-64
2023/04/22 00:20:41;;;;;;;3.13;2.33;;;;;;;8.96;100.00;97955.84;5028962;28;20577;-64
2023/04/22 00:23:08;;;;;;;5.07;2.67;;;;;;;8.97;100.00;97957.47;5024589;28;20672;-64
2023/04/22 00:25:38;;;;;;;3.50;2.17;;;;;;;8.98;100.00;97959.09;5027638;28;20236;-64
2023/04/22 00:28:05;;;;;;;4.80;2.40;;;;;;;8.92;100.00;97952.72;5022932;28;20755;-64
2023/04/22 00:30:37;;;;;;;3.67;2.40;;;;;;;8.88;100.00;97951.41;5027283;28;20270;-64
2023/04/22 00:33:04;;;;;;;4.30;2.37;;;;;;;8.82;100.00;97939.84;5026162;28;20233;-64
2023/04/22 00:35:57;;;;;;;4.00;2.40;;;;;;;8.85;100.00;97933.50;5023665;28;20235;-64
2023/04/22 00:38:23;;;;;;;3.67;2.10;;;;;;;8.93;100.00;97950.97;5023736;28;20245;-64
2023/04/22 00:40:53;;;;;;;6.00;2.20;;;;;;;8.90;100.00;97949.47;5027090;28;20236;-64
2023/04/22 00:43:20;;;;;;;5.97;2.00;;;;;;;8.88;100.00;97948.81;5023303;28;20241;-64
2023/04/22 00:45:47;;;;;;;4.63;2.23;;;;;;;8.81;100.00;97958.22;5026557;28;20299;-64
2023/04/22 00:48:14;;;;;;;3.27;1.90;;;;;;;8.80;100.00;97957.41;5022805;28;21277;-64
2023/04/22 00:50:41;;;;;;;4.17;1.93;;;;;;;8.79;100.00;97958.38;5011604;28;20222;-64
2023/04/22 00:53:09;;;;;;;3.33;2.00;;;;;;;8.78;100.00;97963.72;5002783;28;20232;-63
2023/04/22 00:55:37;;;;;;;7.80;2.37;;;;;;;8.73;100.00;97961.59;5008735;28;20696;-64
2023/04/22 00:58:05;;;;;;;3.93;2.30;;;;;;;8.71;100.00;97974.75;5006534;28;20234;-64
2023/04/22 01:00:37;;;;;;;6.77;2.80;;;;;;;8.78;100.00;97974.13;5025374;28;20232;-64
2023/04/22 01:03:06;;;;;;;4.23;2.80;;;;;;;8.80;100.00;97964.38;5010545;28;20219;-64
2023/04/22 01:05:38;;;;;;;3.07;2.73;;;;;;;8.86;100.00;97972.41;4993981;28;20660;-64
2023/04/22 01:08:04;;;;;;;2.83;2.40;;;;;;;8.94;100.00;97976.00;5002772;28;20225;-64
2023/04/22 01:10:37;;;;;;;4.30;3.00;;;;;;;9.11;100.00;97982.88;5027698;28;20229;-64
2023/04/22 01:13:04;;;;;;;3.53;3.13;;;;;;;9.10;100.00;97983.06;5023208;28;20231;-64
2023/04/22 01:15:56;;;;;;;5.07;2.93;;;;;;;9.07;100.00;97986.78;5019083;28;20236;-64
2023/04/22 01:18:23;;;;;;;3.43;2.93;;;;;;;9.09;100.00;97992.66;5024830;28;20239;-64
2023/04/22 01:20:49;;;;;;;4.10;2.70;;;;;;;9.00;100.00;97985.81;5031732;28;20777;-64
2023/04/22 01:23:22;;;;;;;5.67;4.43;;;;;;;8.91;100.00;97994.53;5027872;28;20232;-64
2023/04/22 01:25:49;;;;;;;3.60;2.73;;;;;;;8.92;100.00;97990.97;5026333;28;21273;-64
2023/04/22 01:28:16;;;;;;;4.57;3.03;;;;;;;8.84;100.00;97983.91;5021362;28;20278;-64
2023/04/22 01:30:45;;;;;;;7.87;3.00;;;;;;;8.82;100.00;97983.25;5035027;28;20676;-64
2023/04/22 01:33:12;;;;;;;4.37;3.30;;;;;;;8.74;100.00;97984.06;5028899;28;20215;-64
2023/04/22 01:35:40;;;;;;;7.67;4.30;;;;;;;8.69;100.00;97979.28;5048257;28;20770;-64
2023/04/22 01:38:08;;;;;;;5.67;3.00;;;;;;;8.67;100.00;97976.03;5023848;28;20234;-64
2023/04/22 01:40:39;;;;;;;4.53;3.10;;;;;;;8.69;100.00;97976.69;5030770;28;20229;-64
2023/04/22 01:43:13;;;;;;;7.50;3.23;;;;;;;8.71;100.00;97977.34;4980774;28;20884;-64
2023/04/22 01:45:40;;;;;;;6.17;2.80;;;;;;;8.64;100.00;97981.53;4977857;28;20305;-64
2023/04/22 01:48:07;;;;;;;3.30;2.80;;;;;;;8.54;100.00;97979.06;5008382;28;20338;-64
2023/04/22 01:50:37;;;;;;;4.30;2.77;;;;;;;8.44;100.00;97973.13;5028815;28;20693;-64
2023/04/22 01:53:07;;;;;;;3.80;2.63;;;;;;;8.39;100.00;97981.38;5046075;28;20716;-64
2023/04/22 01:55:39;;;;;;;4.33;2.80;;;;;;;8.37;100.00;97983.31;5011930;28;20238;-64
2023/04/22 01:58:06;;;;;;;3.70;2.67;;;;;;;8.35;100.00;97984.44;5025088;28;20230;-64
2023/04/22 02:00:40;;;;;;;5.70;2.53;;;;;;;8.28;100.00;97984.22;5019026;28;20210;-64
2023/04/22 02:03:06;;;;;;;4.53;2.90;;;;;;;8.20;100.00;97981.56;5026044;28;20228;-64
2023/04/22 02:05:39;;;;;;;6.17;3.13;;;;;;;8.19;100.00;97979.94;5026214;28;20270;-64
2023/04/22 02:08:12;;;;;;;4.50;3.00;;;;;;;8.21;100.00;97978.81;5039897;28;20351;-64
2023/04/22 02:10:40;;;;;;;6.50;2.80;;;;;;;8.16;100.00;97981.03;5039819;28;20240;-64
2023/04/22 02:13:07;;;;;;;4.97;2.77;;;;;;;8.20;100.00;97981.56;5039842;28;20221;-64
2023/04/22 02:15:33;;;;;;;4.93;2.93;;;;;;;8.11;100.00;97986.72;5029376;28;20238;-64
2023/04/22 02:18:01;;;;;;;6.00;3.20;;;;;;;8.07;100.00;97982.78;5036134;28;20244;-64
2023/04/22 02:20:27;;;;;;;3.40;2.73;;;;;;;8.12;100.00;97979.72;5035612;28;20236;-64
2023/04/22 02:22:54;;;;;;;4.10;2.80;;;;;;;8.05;100.00;97984.72;5036496;28;20233;-64
2023/04/22 02:25:20;;;;;;;5.87;3.13;;;;;;;7.97;100.00;97992.44;5032286;28;20237;-64
2023/04/22 02:27:50;;;;;;;5.47;2.70;;;;;;;7.92;100.00;97997.28;5029113;28;21959;-64
2023/04/22 02:30:17;;;;;;;7.60;2.80;;;;;;;8.04;100.00;97998.69;5028760;28;20233;-64
2023/04/22 02:32:44;;;;;;;3.67;2.87;;;;;;;7.97;100.00;98001.03;5024604;28;20229;-64
2023/04/22 02:35:11;;;;;;;5.30;2.60;;;;;;;7.93;100.00;97996.31;5029740;28;20233;-64
2023/04/22 02:37:37;;;;;;;5.43;2.57;;;;;;;7.90;100.00;98001.81;5039325;28;20663;-64
2023/04/22 02:40:06;;;;;;;7.33;2.57;;;;;;;7.92;100.00;98002.47;5037301;28;20236;-64
2023/04/22 02:42:33;;;;;;;5.13;2.80;;;;;;;7.91;100.00;98008.63;5029907;28;20232;-64
2023/04/22 02:45:03;;;;;;;5.17;3.20;;;;;;;7.83;100.00;98012.78;5034727;28;20331;-64
2023/04/22 02:47:29;;;;;;;3.67;2.80;;;;;;;7.79;100.00;98015.84;5030285;28;20702;-64
2023/04/22 02:49:56;;;;;;;3.80;2.87;;;;;;;7.74;100.00;98012.88;5035756;28;20588;-64
2023/04/22 02:52:22;;;;;;;6.63;3.40;;;;;;;7.68;100.00;98009.91;5029568;28;20243;-64
2023/04/22 02:54:49;;;;;;;3.43;2.50;;;;;;;7.62;100.00;98009.66;5039704;28;21340;-64
2023/04/22 02:57:16;;;;;;;5.20;2.73;;;;;;;7.62;100.00;98004.47;5042960;28;20228;-64
2023/04/22 02:59:42;;;;;;;4.77;2.53;;;;;;;7.58;100.00;98018.69;5035654;28;20232;-64
2023/04/22 03:02:11;;;;;;;5.17;3.20;;;;;;;7.56;100.00;98029.25;5037465;28;20237;-64
2023/04/22 03:04:59;;;;;;;5.23;2.63;;;;;;;7.49;100.00;98023.81;5039774;28;20639;-64
2023/04/22 03:07:27;;;;;;;6.43;2.93;;;;;;;7.48;100.00;98019.56;5040993;28;20239;-64
2023/04/22 03:09:55;;;;;;;6.10;3.37;;;;;;;7.42;100.00;98008.97;5032310;28;20263;-64
2023/04/22 03:12:21;;;;;;;4.77;2.53;;;;;;;7.39;100.00;98010.09;5042657;28;20231;-64
2023/04/22 03:14:48;;;;;;;6.63;2.60;;;;;;;7.43;100.00;98008.81;5032616;28;20456;-64
2023/04/22 03:17:16;;;;;;;3.57;2.70;;;;;;;7.37;100.00;98010.22;5041678;28;20586;-64
2023/04/22 03:19:42;;;;;;;5.07;3.20;;;;;;;7.34;100.00;98012.31;5030885;28;20724;-64
2023/04/22 03:22:11;;;;;;;4.30;2.83;;;;;;;7.40;100.00;98016.91;5036182;28;20230;-64
2023/04/22 03:24:39;;;;;;;5.03;2.97;;;;;;;7.37;100.00;98015.41;5039527;28;20583;-64
2023/04/22 03:27:09;;;;;;;4.20;2.87;;;;;;;7.31;100.00;98018.59;5042105;28;20238;-63
2023/04/22 03:29:36;;;;;;;3.40;2.70;;;;;;;7.25;100.00;98001.00;5030577;28;20224;-63
2023/04/22 03:32:03;;;;;;;5.17;2.77;;;;;;;7.20;100.00;98011.81;5301151;22;20286;-63
2023/04/22 03:34:31;;;;;;;5.93;3.10;;;;;;;7.17;100.00;97999.13;5042800;28;20339;-63
2023/04/22 03:36:57;;;;;;;5.90;3.43;;;;;;;7.17;100.00;98006.09;5041470;28;20236;-63
2023/04/22 03:39:25;;;;;;;6.97;2.80;;;;;;;7.18;100.00;98007.72;5048700;28;20227;-63
2023/04/22 03:41:52;;;;;;;4.03;2.80;;;;;;;7.21;100.00;98007.44;5041159;28;20231;-63
2023/04/22 03:44:19;;;;;;;4.77;2.63;;;;;;;7.18;100.00;98011.16;5043414;28;20235;-63
2023/04/22 03:46:47;;;;;;;4.97;3.00;;;;;;;7.16;100.00;98009.66;5040878;28;20610;-63
2023/04/22 03:49:22;;;;;;;5.33;2.70;;;;;;;7.09;100.00;98012.81;5044091;28;20222;-63
2023/04/22 03:51:50;;;;;;;3.03;2.60;;;;;;;7.05;100.00;98006.28;5040461;28;20249;-63
2023/04/22 03:54:23;;;;;;;4.63;2.37;;;;;;;7.04;100.00;98003.84;5027900;28;20591;-63
2023/04/22 03:56:51;;;;;;;5.90;2.53;;;;;;;7.14;100.00;98006.38;5040577;28;20948;-63
2023/04/22 03:59:21;;;;;;;4.80;2.70;;;;;;;7.06;100.00;98010.50;5059962;28;20215;-63
2023/04/22 04:01:48;;;;;;;4.87;2.90;;;;;;;7.02;100.00;98013.53;5032214;28;20319;-63
2023/04/22 04:04:22;;;;;;;7.80;3.00;;;;;;;7.08;100.00;98023.34;5048053;28;20224;-63
2023/04/22 04:06:55;;;;;;;3.50;2.73;;;;;;;6.99;100.00;98019.03;5040546;28;20228;-63
2023/04/22 04:09:22;;;;;;;4.87;3.00;;;;;;;6.98;100.00;98013.00;5042476;28;20227;-63
2023/04/22 04:11:49;;;;;;;6.87;2.90;;;;;;;7.08;100.00;98003.41;5045119;28;20235;-63
2023/04/22 04:14:18;;;;;;;4.07;3.00;;;;;;;7.01;100.00;97991.16;5028336;28;20220;-63
2023/04/22 04:16:47;;;;;;;5.87;3.13;;;;;;;7.01;100.00;97993.75;5040125;28;20216;-63
2023/04/22 04:19:27;;;;;;;3.07;2.77;;;;;;;7.05;100.00;97998.50;5043447;28;20213;-63
2023/04/22 04:21:57;;;;;;;6.77;3.00;;;;;;;7.04;100.00;97996.84;5041611;28;20244;-63
2023/04/22 04:24:27;;;;;;;4.57;3.10;;;;;;;6.96;100.00;97995.94;5042808;28;20228;-63
2023/04/22 04:27:00;;;;;;;4.87;2.80;;;;;;;6.93;100.00;97984.91;5023033;28;20296;-63
2023/04/22 04:29:32;;;;;;;4.43;3.00;;;;;;;6.90;100.00;97979.16;5023456;28;20227;-63
2023/04/22 04:32:07;;;;;;;3.67;2.90;;;;;;;7.07;100.00;97977.59;5026381;28;20235;-63
2023/04/22 04:34:34;;;;;;;4.03;2.90;;;;;;;7.12;100.00;97977.97;5023512;28;20235;-63
2023/04/22 04:37:03;;;;;;;4.33;2.90;;;;;;;7.04;100.00;97970.91;5026348;28;20243;-63
2023/04/22 04:39:40;;;;;;;3.77;2.70;;;;;;;6.98;100.00;97975.88;5012318;28;20327;-63
2023/04/22 04:42:08;;;;;;;4.03;2.80;;;;;;;7.06;100.00;97975.97;5016599;28;20255;-63
2023/04/22 04:44:43;;;;;;;2.87;2.50;;;;;;;7.03;100.00;97978.84;5038193;28;20598;-63
2023/04/22 04:47:11;;;;;;;4.63;2.80;;;;;;;7.05;100.00;97976.94;5026476;28;20730;-63
2023/04/22 04:49:39;;;;;;;3.50;2.90;;;;;;;7.00;100.00;97972.16;5023670;28;20231;-63
2023/04/22 04:52:10;;;;;;;7.83;2.90;;;;;;;7.02;100.00;97983.22;5035678;28;20301;-63
2023/04/22 04:54:36;;;;;;;6.50;2.90;;;;;;;7.08;100.00;97982.63;5038729;28;20593;-63
2023/04/22 04:57:05;;;;;;;6.23;3.27;;;;;;;7.11;100.00;97985.91;5030095;28;20232;-63
2023/04/22 04:59:32;;;;;;;3.20;2.80;;;;;;;7.11;100.00;97986.72;5027509;28;20229;-63
2023/04/22 05:01:59;;;;;;;5.03;3.07;;;;;;;7.12;100.00;97977.97;5030284;28;20691;-63
2023/04/22 05:04:25;;;;;;;6.00;2.90;;;;;;;7.12;100.00;97992.72;5029729;28;20630;-63
2023/04/22 05:06:53;;;;;;;14.10;7.87;;;;;;;7.16;100.00;97987.13;5027066;28;20234;-63
2023/04/22 05:09:22;;;;;;;7.33;3.00;;;;;;;7.22;100.00;97986.53;5030460;28;20239;-63
2023/04/22 05:11:53;;;;;;;5.13;3.60;;;;;;;7.20;100.00;97988.47;5044151;28;20330;-63
2023/04/22 05:14:21;;;;;;;4.50;3.53;;;;;;;7.28;100.00;97992.13;5029910;28;20219;-63
2023/04/22 05:16:48;;;;;;;25.70;16.57;;;;;;;7.33;100.00;97989.91;5026066;28;20223;-63
2023/04/22 05:19:18;;;;;;;33.97;25.70;;;;;;;7.41;100.00;97992.59;5031921;28;20230;-64
2023/04/22 05:21:47;;;;;;;23.17;17.60;;;;;;;7.48;100.00;98003.19;5026091;28;20295;-64
2023/04/22 05:24:18;;;;;;;13.67;9.67;;;;;;;7.61;100.00;97997.63;5046200;28;20231;-64
2023/04/22 05:26:48;;;;;;;5.03;4.03;;;;;;;7.75;100.00;98009.31;5026813;28;20330;-63
2023/04/22 05:29:20;;;;;;;5.27;3.23;;;;;;;7.88;100.00;98009.75;5047466;28;20239;-63
2023/04/22 05:31:47;;;;;;;4.03;3.07;;;;;;;8.06;100.00;98007.13;5042526;28;20243;-63
2023/04/22 05:34:18;;;;;;;4.40;3.17;;;;;;;8.21;100.00;98009.22;5029570;28;20244;-63
2023/04/22 05:36:45;;;;;;;6.40;3.43;;;;;;;8.33;100.00;98013.19;5025639;28;20309;-63
2023/04/22 05:39:18;;;;;;;5.27;3.90;;;;;;;8.44;100.00;98019.94;5045941;28;20227;-63
2023/04/22 05:41:46;;;;;;;7.27;3.20;;;;;;;8.53;100.00;98018.22;5026179;28;20319;-63
2023/04/22 05:44:38;;;;;;;3.70;3.00;;;;;;;8.60;100.00;98018.44;5044113;28;20345;-63
2023/04/22 05:47:06;;;;;;;3.93;3.23;;;;;;;8.60;100.00;98019.25;5029421;28;20236;-63
2023/04/22 05:49:32;;;;;;;3.20;2.60;;;;;;;8.58;100.00;98015.97;5044235;28;20232;-63
2023/04/22 05:52:19;;;;;;;5.20;2.90;;;;;;;8.57;100.00;98014.34;5046989;28;20315;-63
2023/04/22 05:55:01;;;;;;;5.67;3.50;;;;;;;8.59;100.00;98012.41;5018608;28;20243;-63
2023/04/22 05:57:28;;;;;;;4.47;3.57;;;;;;;8.62;100.00;98019.91;5044084;28;20256;-63
2023/04/22 05:59:56;;;;;;;8.43;4.90;;;;;;;8.65;100.00;98019.59;5043009;28;20233;-63
2023/04/22 06:02:23;;;;;;;17.50;9.10;;;;;;;8.67;100.00;98037.69;5045743;28;20282;-63
2023/04/22 06:04:50;;;;;;;12.00;8.37;;;;;;;8.70;100.00;98035.56;5044195;28;20234;-63
2023/04/22 06:07:16;;;;;;;6.17;2.93;;;;;;;8.69;100.00;98031.34;5044819;28;20231;-63
2023/04/22 06:09:43;;;;;;;3.50;2.80;;;;;;;8.71;100.00;98029.41;5041983;28;20225;-63
2023/04/22 06:12:10;;;;;;;3.90;2.90;;;;;;;8.77;100.00;98037.56;5046860;28;20237;-63
2023/04/22 06:14:37;;;;;;;3.67;2.43;;;;;;;8.83;100.00;98040.38;5026110;28;20763;-63
2023/04/22 06:17:05;;;;;;;4.27;2.40;;;;;;;8.90;100.00;98037.16;5045465;28;20276;-63
2023/04/22 06:19:31;;;;;;;4.67;2.20;;;;;;;8.92;100.00;98037.81;5043008;28;20686;-63
2023/04/22 06:21:58;;;;;;;4.97;3.47;;;;;;;8.97;100.00;98027.75;5048408;28;20260;-63
2023/04/22 06:24:25;;;;;;;6.13;2.63;;;;;;;9.04;100.00;98022.75;5044766;28;20238;-63
2023/04/22 06:26:54;;;;;;;3.50;2.40;;;;;;;9.14;100.00;98026.03;5041398;28;20238;-63
2023/04/22 06:29:20;;;;;;;5.00;2.50;;;;;;;9.24;100.00;98025.91;5045327;28;20221;-63
2023/04/22 06:31:47;;;;;;;8.10;2.53;;;;;;;9.30;100.00;98023.50;5041756;28;20233;-63
2023/04/22 06:34:20;;;;;;;4.53;3.50;;;;;;;9.41;100.00;98024.19;5045171;28;20239;-63
2023/04/22 06:36:47;;;;;;;4.80;2.20;;;;;;;9.51;100.00;98024.88;5042546;28;20229;-63
2023/04/22 06:39:19;;;;;;;5.00;2.40;;;;;;;9.69;100.00;98016.91;5052459;28;20688;-63
2023/04/22 06:42:04;;;;;;;3.67;2.00;;;;;;;9.78;100.00;98022.94;5016302;28;20228;-63
2023/04/22 06:44:51;;;;;;;6.37;1.90;;;;;;;9.92;100.00;98024.13;5021396;28;20233;-63
2023/04/22 06:47:24;;;;;;;3.33;2.20;;;;;;;10.04;100.00;98027.22;5028023;28;20234;-63
2023/04/22 06:49:59;;;;;;;2.77;2.03;;;;;;;10.24;100.00;98030.31;5025551;28;20241;-63
2023/04/22 06:52:40;;;;;;;2.57;1.87;;;;;;;10.41;100.00;98040.78;5024649;28;20334;-63
2023/04/22 06:55:08;;;;;;;4.60;2.23;;;;;;;10.58;100.00;98042.41;5028208;28;20240;-63
2023/04/22 06:57:34;;;;;;;3.40;2.07;;;;;;;10.76;100.00;98049.22;5042883;28;20244;-63
2023/04/22 07:00:01;;;;;;;3.70;2.20;;;;;;;10.90;100.00;98048.53;5028130;28;20242;-63
2023/04/22 07:02:28;;;;;;;4.40;2.60;;;;;;;11.05;100.00;98058.31;5027271;28;20488;-63
2023/04/22 07:04:55;;;;;;;2.47;2.27;;;;;;;11.23;93.99;98063.28;5033007;28;20230;-63
2023/04/22 07:07:23;;;;;;;5.40;2.70;;;;;;;11.48;92.56;98061.38;5034432;28;20237;-63
2023/04/22 07:09:50;;;;;;;5.47;2.40;;;;;;;11.73;92.07;98070.88;5041244;28;21188;-63
2023/04/22 07:12:16;;;;;;;3.87;2.20;;;;;;;11.91;88.63;98068.03;5045468;28;20240;-62
2023/04/22 07:14:44;;;;;;;3.47;2.80;;;;;;;12.19;85.82;98081.44;5042550;28;20279;-62
2023/04/22 07:17:10;;;;;;;4.10;2.23;;;;;;;12.31;90.24;98081.81;5044013;28;20234;-62
2023/04/22 07:19:37;;;;;;;4.40;2.60;;;;;;;12.49;85.56;98075.47;5041264;28;20226;-62
2023/04/22 07:22:05;;;;;;;5.13;2.80;;;;;;;12.59;88.33;98070.00;5045512;28;20417;-62
2023/04/22 07:24:33;;;;;;;5.03;2.60;;;;;;;12.69;85.84;98071.38;5042812;28;20237;-62
2023/04/22 07:27:00;;;;;;;5.17;2.73;;;;;;;12.80;85.88;98069.31;5045404;28;20233;-62
2023/04/22 07:29:26;;;;;;;4.67;2.57;;;;;;;12.89;85.66;98062.16;5045245;28;20570;-62
2023/04/22 07:31:53;;;;;;;4.13;2.60;;;;;;;12.93;80.84;98048.56;5042249;28;20548;-63
2023/04/22 07:34:20;;;;;;;6.23;2.50;;;;;;;12.93;87.77;98058.19;5045649;28;20231;-63
2023/04/22 07:36:46;;;;;;;2.93;2.30;;;;;;;12.99;86.88;98047.00;5042518;28;20231;-63
2023/04/22 07:39:19;;;;;;;2.37;2.13;;;;;;;13.07;86.54;98046.13;5045215;28;20319;-63
2023/04/22 07:41:47;;;;;;;2.47;2.27;;;;;;;13.08;88.25;98045.91;5041890;28;20258;-63
2023/04/22 07:44:20;;;;;;;4.57;2.27;;;;;;;13.21;88.99;98044.47;5044976;28;20606;-63
2023/04/22 07:46:47;;;;;;;3.43;2.10;;;;;;;13.31;89.29;98038.94;5041666;28;20234;-63
2023/04/22 07:49:18;;;;;;;3.33;2.80;;;;;;;13.43;88.08;98038.34;5045166;28;20644;-63
2023/04/22 07:51:45;;;;;;;3.40;2.30;;;;;;;13.55;91.16;98030.00;5042255;28;20314;-63
2023/04/22 07:54:18;;;;;;;4.27;2.53;;;;;;;13.62;87.59;98030.06;5044727;28;20969;-63
2023/04/22 07:56:46;;;;;;;3.00;2.43;;;;;;;13.77;82.59;98022.16;5042281;28;20227;-64
2023/04/22 07:59:18;;;;;;;2.23;1.90;;;;;;;13.94;79.49;98035.84;5044222;28;20223;-64
2023/04/22 08:01:46;;;;;;;3.50;2.27;;;;;;;14.14;78.95;98022.88;5041881;28;20273;-64
2023/04/22 08:04:22;;;;;;;2.67;2.07;;;;;;;14.30;79.62;98027.06;5044538;28;20235;-64
2023/04/22 08:06:48;;;;;;;2.43;2.13;;;;;;;14.49;76.95;98022.97;5041743;28;20286;-64
2023/04/22 08:09:18;;;;;;;4.60;2.47;;;;;;;14.72;73.68;98027.19;5044263;28;20686;-64
2023/04/22 08:11:46;;;;;;;6.50;2.67;;;;;;;14.88;74.16;98024.25;5041478;28;20242;-64
2023/04/22 08:14:18;;;;;;;4.13;2.60;;;;;;;15.10;68.65;98033.88;5044646;28;20247;-64
2023/04/22 08:16:45;;;;;;;5.50;3.10;;;;;;;15.14;71.60;98030.66;5041940;28;20718;-64
2023/04/22 08:19:15;;;;;;;4.27;2.80;;;;;;;15.22;73.53;98024.44;5044870;28;20689;-64
2023/04/22 08:21:43;;;;;;;4.47;2.47;;;;;;;15.34;70.98;98027.31;5041765;28;20223;-64
2023/04/22 08:24:10;;;;;;;5.50;3.20;;;;;;;15.50;67.11;98031.41;5044913;28;20230;-64
2023/04/22 08:26:37;;;;;;;5.83;3.50;;;;;;;15.50;67.30;98034.84;5042030;28;20231;-62
2023/04/22 08:29:04;;;;;;;4.77;3.40;;;;;;;15.55;67.09;98033.44;5044012;28;20288;-63
2023/04/22 08:31:31;;;;;;;6.20;3.30;;;;;;;15.61;67.87;98030.03;5040880;28;20228;-63
2023/04/22 08:33:58;;;;;;;5.20;3.80;;;;;;;15.84;66.05;98039.41;5044756;28;20235;-63
2023/04/22 08:36:26;;;;;;;7.53;3.87;;;;;;;15.73;66.25;98035.50;5044871;28;20718;-63
2023/04/22 08:38:53;;;;;;;4.73;4.20;;;;;;;15.76;68.66;98043.84;5041098;28;20219;-63
2023/04/22 08:41:23;;;;;;;4.83;3.93;;;;;;;15.69;66.93;98032.47;5044532;28;20238;-63
2023/04/22 08:43:50;;;;;;;5.97;3.83;;;;;;;15.84;67.28;98053.34;5041304;28;22544;-63
2023/04/22 08:46:19;;;;;;;4.80;4.27;;;;;;;15.41;67.66;98037.84;5044588;28;20228;-63
2023/04/22 08:48:47;;;;;;;4.53;3.80;;;;;;;15.70;67.44;98044.63;5041206;28;20313;-63
2023/04/22 08:51:15;;;;;;;8.40;5.30;;;;;;;15.55;66.71;98042.13;5044297;28;20236;-63
2023/04/22 08:53:43;;;;;;;6.53;4.27;;;;;;;15.77;69.41;98034.09;5041529;28;20285;-63
2023/04/22 08:56:11;;;;;;;5.13;4.40;;;;;;;15.93;66.38;98027.69;5044448;28;20253;-63
2023/04/22 08:58:38;;;;;;;7.20;4.90;;;;;;;16.02;65.28;98028.31;5040579;28;20219;-64
2023/04/22 09:01:05;;;;;;;6.20;4.63;;;;;;;16.09;65.38;98014.13;5043663;28;20282;-64
2023/04/22 09:03:33;;;;;;;8.13;4.67;;;;;;;16.21;65.09;98021.44;5038863;28;20276;-64
2023/04/22 09:06:03;;;;;;;6.40;4.20;;;;;;;16.32;65.96;98034.00;5042962;28;20687;-64
2023/04/22 09:08:31;;;;;;;5.23;4.63;;;;;;;16.36;64.79;98022.03;5039838;28;20706;-64
2023/04/22 09:10:58;;;;;;;7.90;4.20;;;;;;;16.64;65.08;98026.28;5040414;28;20322;-64
2023/04/22 09:13:26;;;;;;;6.17;4.80;;;;;;;16.72;64.24;98027.88;5044314;28;20263;-64
2023/04/22 09:15:52;;;;;;;6.43;4.73;;;;;;;16.72;63.74;98016.53;5040946;28;20226;-64
2023/04/22 09:18:20;;;;;;;8.53;6.50;;;;;;;16.69;66.06;98004.56;5034817;28;20299;-64
2023/04/22 09:20:49;;;;;;;9.57;4.83;;;;;;;16.81;66.08;98008.19;5040897;28;20650;-64
2023/04/22 09:23:16;;;;;;;5.57;4.67;;;;;;;16.81;66.82;97999.50;5043695;28;20230;-64
2023/04/22 09:25:45;;;;;;;7.10;5.10;;;;;;;16.79;64.43;98002.31;5040633;28;20770;-64
2023/04/22 09:28:16;;;;;;;8.23;4.47;;;;;;;16.68;66.35;98003.78;5043568;28;20234;-64
2023/04/22 09:30:44;;;;;;;5.93;5.00;;;;;;;16.83;65.82;97995.63;5040475;28;20236;-64
2023/04/22 09:33:12;;;;;;;8.57;4.70;;;;;;;16.91;64.00;98005.16;5042508;28;20295;-64
2023/04/22 09:35:40;;;;;;;5.53;4.43;;;;;;;16.64;64.82;97997.31;5041381;28;20308;-64
2023/04/22 09:38:09;;;;;;;7.30;3.90;;;;;;;16.60;65.52;98005.81;5042856;28;20233;-64
2023/04/22 09:40:37;;;;;;;6.33;4.27;;;;;;;16.51;67.48;97999.94;5040638;28;20584;-64
2023/04/22 09:43:06;;;;;;;6.00;4.20;;;;;;;16.59;67.64;97994.47;5046594;28;20228;-64
2023/04/22 09:45:33;;;;;;;7.67;5.40;;;;;;;16.75;68.68;97989.78;5044782;28;20228;-64
2023/04/22 09:48:04;;;;;;;5.63;3.80;;;;;;;16.92;65.92;97990.13;5045947;28;20298;-64
2023/04/22 09:50:30;;;;;;;5.63;3.63;;;;;;;16.96;66.70;97989.53;5045178;28;20241;-64
2023/04/22 09:52:59;;;;;;;5.00;3.50;;;;;;;16.94;68.41;97988.94;5034921;28;20241;-64
2023/04/22 09:55:30;;;;;;;4.60;3.20;;;;;;;17.16;62.17;97983.38;5042038;28;20285;-64
2023/04/22 09:57:58;;;;;;;4.33;2.30;;;;;;;17.32;58.04;97981.28;5044086;28;20227;-64
2023/04/22 10:00:28;;;;;;;3.80;2.47;;;;;;;17.45;57.30;97978.56;5046291;28;20230;-64
2023/04/22 10:02:54;;;;;;;6.73;2.80;;;;;;;17.59;55.42;97989.06;5044117;28;20265;-64
2023/04/22 10:05:21;;;;;;;5.20;2.67;;;;;;;17.77;55.66;97997.06;5046892;28;20231;-64
2023/04/22 10:07:48;;;;;;;10.77;3.27;;;;;;;17.92;55.85;97999.41;5043767;28;20232;-64
2023/04/22 10:10:14;;;;;;;4.53;3.00;;;;;;;18.09;55.66;97997.06;5046554;28;20238;-64
2023/04/22 10:12:43;;;;;;;5.50;3.07;;;;;;;18.37;54.59;97995.81;5025674;28;20234;-64
2023/04/22 10:15:10;;;;;;;5.47;3.20;;;;;;;18.52;57.09;97997.31;5046778;28;20242;-64
2023/04/22 10:17:38;;;;;;;4.50;3.20;;;;;;;18.59;57.54;97998.88;5043740;28;20244;-64
2023/04/22 10:20:12;;;;;;;6.10;3.00;;;;;;;18.85;59.67;98006.75;5045886;28;20238;-64
2023/04/22 10:22:41;;;;;;;4.07;3.53;;;;;;;19.11;56.87;98010.97;5043413;28;20232;-64
2023/04/22 10:25:11;;;;;;;6.07;3.40;;;;;;;18.84;57.90;98016.53;5046820;28;20233;-64
2023/04/22 10:27:38;;;;;;;5.77;3.80;;;;;;;19.22;54.94;98032.44;5025619;28;21070;-64
2023/04/22 10:30:08;;;;;;;5.77;2.30;;;;;;;19.07;47.73;98028.31;5046348;28;20718;-64
2023/04/22 10:32:35;;;;;;;3.10;2.17;;;;;;;19.36;45.08;98025.13;5043205;28;20232;-64
2023/04/22 10:35:13;;;;;;;6.90;2.40;;;;;;;19.52;45.84;98021.88;5045732;28;20235;-64
2023/04/22 10:37:44;;;;;;;3.07;2.33;;;;;;;19.76;45.80;98016.66;5042940;28;20736;-64
2023/04/22 10:40:15;;;;;;;4.37;2.33;;;;;;;19.87;45.78;98021.19;5045802;28;20227;-64
2023/04/22 10:42:47;;;;;;;4.23;2.07;;;;;;;20.18;43.73;98014.00;5042610;28;20288;-64
2023/04/22 10:45:15;;;;;;;5.47;2.13;;;;;;;20.32;43.04;98019.09;5045002;28;20273;-64
2023/04/22 10:47:43;;;;;;;4.23;1.80;;;;;;;20.56;42.18;98014.63;5042973;28;20239;-64
2023/04/22 10:50:12;;;;;;;2.60;1.87;;;;;;;20.92;42.85;98017.28;5045873;28;20232;-64
2023/04/22 10:52:39;;;;;;;3.83;2.07;;;;;;;21.11;42.81;98012.59;5042718;28;20261;-64
2023/04/22 10:55:06;;;;;;;4.27;2.00;;;;;;;21.21;40.78;98015.47;5045553;28;20286;-64
2023/04/22 10:57:40;;;;;;;3.97;1.80;;;;;;;20.99;39.24;98006.53;5024846;28;20224;-62
2023/04/22 11:00:39;;;;;;;2.83;1.80;;;;;;;20.85;41.73;98008.63;5045765;28;20221;-62
2023/04/22 11:03:15;;;;;;;1.90;1.60;;;;;;;20.54;40.17;97989.38;5031274;28;20326;-62
2023/04/22 11:05:42;;;;;;;3.77;1.70;;;;;;;20.81;40.60;97996.88;5042393;28;20230;-62
2023/04/22 11:08:15;;;;;;;4.40;1.60;;;;;;;20.66;40.07;98008.72;5045214;28;20244;-62
2023/04/22 11:10:43;;;;;;;3.67;1.77;;;;;;;20.83;40.57;98019.47;5042623;28;20239;-62
2023/04/22 11:13:12;;;;;;;3.30;1.43;;;;;;;20.48;37.04;98017.63;5045684;28;20248;-64
2023/04/22 11:15:42;;;;;;;3.43;1.43;;;;;;;20.46;38.94;98017.03;5042765;28;20313;-64
2023/04/22 11:18:13;;;;;;;2.20;1.47;;;;;;;20.16;39.61;98018.72;5027788;28;20244;-64
2023/04/22 11:20:39;;;;;;;3.30;1.50;;;;;;;20.71;38.93;98023.94;5040606;28;20240;-65
2023/04/22 11:23:06;;;;;;;6.33;1.70;;;;;;;20.60;39.48;98030.88;5045533;28;20695;-64
2023/04/22 11:25:33;;;;;;;6.00;1.77;;;;;;;20.52;38.50;98041.81;5042234;28;20588;-64
2023/04/22 11:28:00;;;;;;;2.83;1.63;;;;;;;20.81;39.94;98036.66;5045217;28;20607;-64
2023/04/22 11:30:30;;;;;;;4.57;1.80;;;;;;;20.97;39.26;98041.25;5045165;28;20228;-64
2023/04/22 11:32:59;;;;;;;3.17;1.67;;;;;;;21.49;36.77;98048.41;5041838;28;20224;-64
2023/04/22 11:35:29;;;;;;;4.13;1.67;;;;;;;21.72;39.34;98057.34;5044153;28;20217;-64
2023/04/22 11:37:58;;;;;;;4.23;1.60;;;;;;;21.47;39.25;98045.16;5042751;28;20698;-64
2023/04/22 11:40:27;;;;;;;3.27;1.53;;;;;;;21.08;38.71;98037.78;5044387;28;20228;-64
2023/04/22 11:42:55;;;;;;;3.00;2.07;;;;;;;20.98;39.87;98015.50;5042315;28;20237;-64